Time;durP1;ratioP1;P1;durP2;ratioP2;P2;SDS_P1;SDS_P2;PMS_P1;PMS_P2;Temp;Humidity;BMP_temperature;BMP_pressure;BME280_temperature;BME280_humidity;BME280_pressure;Samples;Min_cycle;Max_cycle;Signal;HPM_P1;HPM_P2
2022/10/01 00:00:48;;;;;;;5.53;3.77;;;8.80;99.90;;;;;;5028365;28;20289;-83
2022/10/01 00:03:14;;;;;;;5.87;3.70;;;8.80;99.90;;;;;;5026807;28;20249;-83
2022/10/01 00:05:41;;;;;;;5.07;3.67;;;8.80;99.90;;;;;;5029211;28;20233;-83
2022/10/01 00:08:08;;;;;;;4.77;3.80;;;8.90;99.90;;;;;;5022358;28;20239;-84
2022/10/01 00:10:40;;;;;;;8.13;3.63;;;8.90;99.90;;;;;;5020912;28;20235;-83
2022/10/01 00:13:08;;;;;;;3.67;3.23;;;8.90;99.90;;;;;;5011912;28;20225;-83
2022/10/01 00:15:34;;;;;;;5.77;3.93;;;8.90;99.90;;;;;;5027338;28;20227;-83
2022/10/01 00:18:01;;;;;;;5.33;3.70;;;8.90;99.90;;;;;;5021912;28;20234;-83
2022/10/01 00:20:28;;;;;;;5.37;3.60;;;8.90;99.90;;;;;;5026080;28;20226;-85
2022/10/01 00:22:55;;;;;;;5.77;3.50;;;8.90;99.90;;;;;;5026441;28;20268;-84
2022/10/01 00:25:24;;;;;;;5.73;3.83;;;8.90;99.90;;;;;;5028397;28;20336;-83
2022/10/01 00:27:52;;;;;;;4.30;3.10;;;8.90;99.90;;;;;;5022585;28;20229;-84
2022/10/01 00:30:19;;;;;;;4.53;3.97;;;8.90;99.90;;;;;;5019194;28;20231;-84
2022/10/01 00:32:45;;;;;;;3.73;3.30;;;8.90;99.90;;;;;;5023695;28;20273;-82
2022/10/01 00:35:13;;;;;;;4.27;3.40;;;8.90;99.90;;;;;;5023524;28;20280;-83
2022/10/01 00:37:41;;;;;;;4.70;3.50;;;8.90;99.90;;;;;;5024280;28;20337;-82
2022/10/01 00:40:09;;;;;;;5.10;3.13;;;8.90;99.90;;;;;;5016851;28;20723;-86
2022/10/01 00:42:35;;;;;;;3.50;2.90;;;8.90;99.90;;;;;;5021171;28;20322;-85
2022/10/01 00:45:04;;;;;;;5.10;3.43;;;8.90;99.90;;;;;;5025287;28;20233;-84
2022/10/01 00:47:34;;;;;;;4.37;3.10;;;8.90;99.90;;;;;;5025747;28;20282;-83
2022/10/01 00:50:06;;;;;;;6.80;3.23;;;8.90;99.90;;;;;;5022474;28;21094;-83
2022/10/01 00:52:35;;;;;;;4.87;3.30;;;8.80;99.90;;;;;;5026296;28;20223;-82
2022/10/01 00:55:07;;;;;;;5.10;3.47;;;8.80;99.90;;;;;;5026468;28;20696;-83
2022/10/01 00:57:34;;;;;;;3.30;2.90;;;8.80;99.90;;;;;;5024875;28;20232;-84
2022/10/01 01:00:07;;;;;;;4.37;3.23;;;8.80;99.90;;;;;;5019935;28;20234;-82
2022/10/01 01:02:34;;;;;;;5.97;3.20;;;8.80;99.90;;;;;;5024924;28;20245;-84
2022/10/01 01:05:01;;;;;;;5.27;3.50;;;8.80;99.90;;;;;;5026292;28;20732;-83
2022/10/01 01:07:29;;;;;;;4.87;3.23;;;8.80;99.90;;;;;;5026079;28;20310;-83
2022/10/01 01:09:56;;;;;;;3.87;3.30;;;8.80;99.90;;;;;;5027615;28;20317;-83
2022/10/01 01:12:36;;;;;;;3.90;3.03;;;8.80;99.90;;;;;;5023830;28;20233;-83
2022/10/01 01:15:14;;;;;;;8.40;3.47;;;8.80;99.90;;;;;;5038963;28;20255;-83
2022/10/01 01:17:51;;;;;;;6.60;3.27;;;8.80;99.90;;;;;;5044645;28;20307;-82
2022/10/01 01:20:42;;;;;;;4.93;3.47;;;8.80;99.90;;;;;;5024606;28;20285;-82
2022/10/01 01:23:37;;;;;;;4.93;3.60;;;8.80;99.90;;;;;;5024139;28;20222;-82
2022/10/01 01:26:19;;;;;;;5.10;3.43;;;8.80;99.90;;;;;;4997569;28;20236;-84
2022/10/01 01:28:50;;;;;;;4.97;3.30;;;8.80;99.90;;;;;;5026411;28;20760;-83
2022/10/01 01:31:22;;;;;;;4.50;3.30;;;8.80;99.90;;;;;;5042439;28;20232;-82
2022/10/01 01:33:52;;;;;;;6.27;3.83;;;8.70;99.90;;;;;;5024939;28;20911;-82
2022/10/01 01:36:29;;;;;;;4.10;3.17;;;8.70;99.90;;;;;;5013965;28;20234;-81
2022/10/01 01:39:00;;;;;;;5.17;3.80;;;8.70;99.90;;;;;;5024872;28;20220;-83
2022/10/01 01:41:29;;;;;;;5.47;3.10;;;8.70;99.90;;;;;;5022705;28;20240;-84
2022/10/01 01:44:01;;;;;;;5.70;3.37;;;8.70;99.90;;;;;;5027470;28;20302;-82
2022/10/01 01:46:32;;;;;;;5.10;3.63;;;8.70;99.90;;;;;;5026460;28;20231;-83
2022/10/01 01:49:00;;;;;;;5.87;3.40;;;8.70;99.90;;;;;;5028190;28;20242;-84
2022/10/01 01:51:33;;;;;;;4.67;3.40;;;8.70;99.90;;;;;;5027942;28;20271;-84
2022/10/01 01:54:00;;;;;;;4.40;2.93;;;8.70;99.90;;;;;;5025015;28;20230;-82
2022/10/01 01:56:27;;;;;;;3.53;3.17;;;8.80;99.90;;;;;;5026017;28;20232;-82
2022/10/01 01:58:53;;;;;;;5.00;3.40;;;8.80;99.90;;;;;;5029850;28;20320;-82
2022/10/01 02:01:38;;;;;;;4.60;3.27;;;8.80;99.90;;;;;;5029941;28;20233;-82
2022/10/01 02:04:09;;;;;;;4.63;3.20;;;8.80;99.90;;;;;;5024507;28;20470;-83
2022/10/01 02:06:48;;;;;;;7.37;3.10;;;8.80;99.90;;;;;;5027002;28;20295;-82
2022/10/01 02:09:27;;;;;;;4.07;2.83;;;8.80;99.90;;;;;;5020911;28;20232;-82
2022/10/01 02:12:06;;;;;;;5.03;2.90;;;8.80;99.90;;;;;;5040709;28;20701;-82
2022/10/01 02:14:39;;;;;;;4.07;3.10;;;8.90;99.90;;;;;;5025930;28;20227;-82
2022/10/01 02:17:15;;;;;;;4.07;2.70;;;8.90;99.90;;;;;;5031425;28;20246;-82
2022/10/01 02:19:54;;;;;;;3.37;2.63;;;8.90;99.90;;;;;;5024317;28;20230;-84
2022/10/01 02:22:26;;;;;;;4.07;3.17;;;8.90;99.90;;;;;;5019909;28;20294;-82
2022/10/01 02:24:57;;;;;;;3.80;3.07;;;8.90;99.90;;;;;;5019129;28;20224;-85
2022/10/01 02:27:28;;;;;;;3.50;3.07;;;8.90;99.90;;;;;;5039372;28;20788;-83
2022/10/01 02:29:59;;;;;;;5.60;2.97;;;9.00;99.90;;;;;;5015208;28;20226;-83
2022/10/01 02:32:28;;;;;;;4.23;3.03;;;8.90;99.90;;;;;;5021527;28;20260;-83
2022/10/01 02:34:55;;;;;;;5.07;2.97;;;9.00;99.90;;;;;;5022238;28;20466;-83
2022/10/01 02:37:24;;;;;;;4.27;2.90;;;9.00;99.90;;;;;;5029176;28;20230;-82
2022/10/01 02:39:52;;;;;;;4.67;2.70;;;9.00;99.90;;;;;;5043133;28;20314;-84
2022/10/01 02:42:21;;;;;;;4.67;2.80;;;9.00;99.90;;;;;;5028131;28;20275;-83
2022/10/01 02:44:51;;;;;;;4.60;2.70;;;9.00;99.90;;;;;;5030202;28;20299;-83
2022/10/01 02:47:24;;;;;;;4.87;2.80;;;9.10;99.90;;;;;;5025904;28;20796;-84
2022/10/01 02:49:53;;;;;;;5.37;3.00;;;9.10;99.90;;;;;;5020670;28;20721;-83
2022/10/01 02:52:27;;;;;;;3.10;2.80;;;9.10;99.90;;;;;;5021797;28;20307;-83
2022/10/01 02:54:58;;;;;;;4.17;2.67;;;9.20;99.90;;;;;;5006795;28;20231;-85
2022/10/01 02:57:26;;;;;;;5.63;2.87;;;9.20;99.90;;;;;;5017362;28;20316;-85
2022/10/01 02:59:56;;;;;;;4.23;3.07;;;9.20;99.90;;;;;;5025923;28;20734;-84
2022/10/01 03:02:24;;;;;;;7.03;3.00;;;9.20;99.90;;;;;;5026680;28;20273;-83
2022/10/01 03:04:55;;;;;;;2.93;2.37;;;9.20;99.90;;;;;;5024786;28;20229;-82
2022/10/01 03:07:22;;;;;;;5.03;2.90;;;9.20;99.90;;;;;;5026565;28;20341;-83
2022/10/01 03:09:49;;;;;;;3.97;2.83;;;9.30;99.90;;;;;;5023215;28;20606;-82
2022/10/01 03:12:17;;;;;;;4.63;2.60;;;9.30;99.90;;;;;;5018309;28;20740;-83
2022/10/01 03:14:44;;;;;;;3.53;2.83;;;9.30;99.90;;;;;;5014987;28;20696;-83
2022/10/01 03:17:11;;;;;;;4.03;2.57;;;9.30;99.90;;;;;;5014851;28;20240;-79
2022/10/01 03:19:39;;;;;;;2.50;2.30;;;9.30;99.90;;;;;;5002740;28;20280;-80
2022/10/01 03:22:07;;;;;;;3.17;2.43;;;9.30;99.90;;;;;;5001649;28;21905;-79
2022/10/01 03:24:34;;;;;;;4.90;3.03;;;9.30;99.90;;;;;;5020014;28;20261;-78
2022/10/01 03:27:01;;;;;;;4.27;2.70;;;9.40;99.90;;;;;;5021302;28;20250;-78
2022/10/01 03:29:27;;;;;;;2.97;2.53;;;9.40;99.90;;;;;;5023522;28;20226;-79
2022/10/01 03:31:54;;;;;;;3.50;2.57;;;9.40;99.90;;;;;;5020862;28;20233;-78
2022/10/01 03:34:21;;;;;;;3.00;2.13;;;9.40;99.90;;;;;;5020151;28;20243;-79
2022/10/01 03:36:48;;;;;;;2.90;2.50;;;9.40;99.90;;;;;;5018328;28;20219;-79
2022/10/01 03:39:17;;;;;;;2.73;2.20;;;9.40;99.90;;;;;;5016912;28;20252;-79
2022/10/01 03:41:44;;;;;;;3.10;2.40;;;9.50;99.90;;;;;;5017543;28;20229;-78
2022/10/01 03:44:11;;;;;;;4.10;2.50;;;9.40;99.90;;;;;;5007715;28;20230;-79
2022/10/01 03:46:38;;;;;;;3.53;2.57;;;9.50;99.90;;;;;;5019909;28;20704;-78
2022/10/01 03:49:05;;;;;;;4.17;2.53;;;9.50;99.90;;;;;;5020456;28;20604;-79
2022/10/01 03:51:32;;;;;;;3.77;2.43;;;9.50;99.90;;;;;;5017777;28;20318;-78
2022/10/01 03:53:59;;;;;;;3.30;2.40;;;9.50;99.90;;;;;;5016597;28;20227;-78
2022/10/01 03:56:27;;;;;;;2.47;2.20;;;9.50;99.90;;;;;;5020599;28;20228;-79
2022/10/01 03:58:53;;;;;;;2.80;2.60;;;9.60;99.90;;;;;;5019048;28;20227;-79
2022/10/01 04:01:20;;;;;;;5.10;2.57;;;9.60;99.90;;;;;;5008763;28;20239;-78
2022/10/01 04:03:49;;;;;;;4.47;2.43;;;9.60;99.90;;;;;;5013627;28;20229;-79
2022/10/01 04:06:16;;;;;;;3.17;2.40;;;9.60;99.90;;;;;;5020734;28;20684;-79
2022/10/01 04:08:43;;;;;;;4.47;2.37;;;9.60;99.90;;;;;;5014871;28;20228;-79
2022/10/01 04:11:10;;;;;;;4.13;2.73;;;9.60;99.90;;;;;;5020403;28;20323;-79
2022/10/01 04:13:38;;;;;;;4.57;2.53;;;9.60;99.90;;;;;;5017516;28;20259;-79
2022/10/01 04:16:06;;;;;;;3.43;2.33;;;9.60;99.90;;;;;;5020025;28;20242;-79
2022/10/01 04:18:34;;;;;;;4.30;2.60;;;9.60;99.90;;;;;;5019946;28;20645;-79
2022/10/01 04:21:01;;;;;;;4.40;2.40;;;9.50;99.90;;;;;;5018600;28;20238;-77
2022/10/01 04:23:27;;;;;;;4.27;3.00;;;9.60;99.90;;;;;;5018064;28;20224;-79
2022/10/01 04:25:54;;;;;;;2.63;2.40;;;9.50;99.90;;;;;;5017587;28;20310;-78
2022/10/01 04:28:21;;;;;;;3.90;2.83;;;9.50;99.90;;;;;;5014877;28;20593;-77
2022/10/01 04:31:23;;;;;;;3.50;2.80;;;9.40;99.90;;;;;;5018467;28;20697;-78
2022/10/01 04:33:35;;;;;;;4.90;2.70;;;9.40;99.90;;;;;;5016504;28;20229;-79
2022/10/01 04:36:03;;;;;;;3.87;2.73;;;9.30;99.90;;;;;;5022286;28;20230;-80
2022/10/01 04:38:29;;;;;;;4.57;2.90;;;9.20;99.90;;;;;;5018552;28;20232;-80
2022/10/01 04:40:56;;;;;;;4.97;3.00;;;9.20;99.90;;;;;;5015691;28;20319;-81
2022/10/01 04:43:23;;;;;;;4.70;3.10;;;9.20;99.90;;;;;;5016902;28;20226;-83
2022/10/01 04:45:51;;;;;;;3.10;2.80;;;9.10;99.90;;;;;;5016068;28;20861;-81
2022/10/01 04:48:17;;;;;;;3.47;2.37;;;9.10;99.90;;;;;;5018970;28;20226;-80
2022/10/01 04:50:45;;;;;;;3.73;2.60;;;9.00;99.90;;;;;;5014921;28;20232;-80
2022/10/01 04:53:11;;;;;;;6.47;2.73;;;9.00;99.90;;;;;;5018625;28;20230;-79
2022/10/01 04:55:38;;;;;;;3.07;2.77;;;8.90;99.90;;;;;;5018690;28;20228;-80
2022/10/01 04:58:05;;;;;;;3.33;2.90;;;8.90;99.90;;;;;;5024899;28;20219;-79
2022/10/01 05:00:32;;;;;;;4.43;2.97;;;8.80;99.90;;;;;;5016799;28;20633;-78
2022/10/01 05:03:00;;;;;;;4.33;3.03;;;8.80;99.90;;;;;;5021374;28;20231;-80
2022/10/01 05:05:28;;;;;;;3.17;2.80;;;8.70;99.90;;;;;;5019061;28;20231;-82
2022/10/01 05:07:55;;;;;;;5.33;2.97;;;8.70;99.90;;;;;;5015749;28;20230;-84
2022/10/01 05:10:23;;;;;;;4.00;2.87;;;8.70;99.90;;;;;;5021774;28;20642;-83
2022/10/01 05:12:51;;;;;;;3.10;2.80;;;8.60;99.90;;;;;;5022975;28;20227;-81
2022/10/01 05:15:18;;;;;;;5.97;3.00;;;8.60;99.90;;;;;;5021072;28;20233;-80
2022/10/01 05:17:46;;;;;;;4.63;3.20;;;8.60;99.90;;;;;;5021954;28;20305;-79
2022/10/01 05:20:18;;;;;;;4.67;3.03;;;8.60;99.90;;;;;;5021588;28;20315;-79
2022/10/01 05:22:45;;;;;;;4.30;3.27;;;8.60;99.90;;;;;;5019678;28;20234;-80
2022/10/01 05:25:12;;;;;;;5.47;3.00;;;8.50;99.90;;;;;;5013646;28;20239;-79
2022/10/01 05:27:39;;;;;;;5.40;3.30;;;8.50;99.90;;;;;;5014727;28;20303;-79
2022/10/01 05:30:08;;;;;;;5.37;3.50;;;8.50;99.90;;;;;;5018557;28;20228;-79
2022/10/01 05:32:34;;;;;;;6.50;3.23;;;8.50;99.90;;;;;;5014491;28;20263;-79
2022/10/01 05:35:01;;;;;;;6.43;4.67;;;8.50;99.90;;;;;;5015323;28;20238;-78
2022/10/01 05:37:29;;;;;;;5.33;3.73;;;8.50;99.90;;;;;;5025715;28;20236;-78
2022/10/01 05:39:56;;;;;;;5.40;4.27;;;8.50;99.90;;;;;;5017210;28;20239;-79
2022/10/01 05:42:22;;;;;;;3.90;3.20;;;8.40;99.90;;;;;;5022087;28;20235;-79
2022/10/01 05:44:49;;;;;;;5.67;4.80;;;8.40;99.90;;;;;;5020962;28;20251;-80
2022/10/01 05:47:17;;;;;;;6.43;3.83;;;8.40;99.90;;;;;;5025089;28;20235;-79
2022/10/01 05:49:44;;;;;;;4.87;3.20;;;8.40;99.90;;;;;;5023349;28;20328;-80
2022/10/01 05:52:11;;;;;;;4.50;3.20;;;8.40;99.90;;;;;;5020846;28;20226;-80
2022/10/01 05:54:40;;;;;;;5.23;3.97;;;8.40;99.90;;;;;;5017599;28;20520;-80
2022/10/01 05:57:09;;;;;;;6.40;3.83;;;8.30;99.90;;;;;;5019562;28;20615;-80
2022/10/01 05:59:39;;;;;;;5.07;3.60;;;8.30;99.90;;;;;;5015551;28;20322;-80
2022/10/01 06:02:05;;;;;;;6.23;4.30;;;8.30;99.90;;;;;;5015895;28;20762;-78
2022/10/01 06:04:32;;;;;;;4.23;3.83;;;8.30;99.90;;;;;;5014584;28;20246;-78
2022/10/01 06:06:59;;;;;;;4.40;4.00;;;8.30;99.90;;;;;;5014732;28;20242;-80
2022/10/01 06:09:29;;;;;;;5.57;3.93;;;8.30;99.90;;;;;;5019503;28;20246;-79
2022/10/01 06:11:59;;;;;;;13.13;4.03;;;8.30;99.90;;;;;;5018856;28;20233;-78
2022/10/01 06:14:26;;;;;;;7.20;4.30;;;8.20;99.90;;;;;;5024197;28;20234;-79
2022/10/01 06:16:55;;;;;;;5.23;4.10;;;8.30;99.90;;;;;;5023526;28;20939;-80
2022/10/01 06:19:21;;;;;;;4.13;3.73;;;8.20;99.90;;;;;;5016774;28;20661;-80
2022/10/01 06:21:48;;;;;;;5.57;4.37;;;8.20;99.90;;;;;;5012951;28;20234;-79
2022/10/01 06:24:15;;;;;;;5.47;4.30;;;8.20;99.90;;;;;;5021201;28;20238;-81
2022/10/01 06:26:42;;;;;;;5.07;4.37;;;8.20;99.90;;;;;;5018886;28;20256;-80
2022/10/01 06:29:11;;;;;;;6.03;4.33;;;8.20;99.90;;;;;;5018688;28;20591;-80
2022/10/01 06:31:38;;;;;;;6.07;4.30;;;8.20;99.90;;;;;;5020237;28;20631;-81
2022/10/01 06:34:04;;;;;;;7.67;4.80;;;8.20;99.90;;;;;;5022271;28;20726;-81
2022/10/01 06:36:31;;;;;;;5.93;4.10;;;8.20;99.90;;;;;;5027558;28;22016;-82
2022/10/01 06:38:58;;;;;;;5.37;4.50;;;8.20;99.90;;;;;;5021735;28;20237;-81
2022/10/01 06:41:27;;;;;;;4.23;3.83;;;8.20;99.90;;;;;;5023105;28;20233;-83
2022/10/01 06:43:58;;;;;;;6.50;4.30;;;8.20;99.90;;;;;;5021513;28;20227;-81
2022/10/01 06:46:29;;;;;;;5.27;4.30;;;8.30;99.90;;;;;;5015874;28;20336;-80
2022/10/01 06:48:55;;;;;;;7.00;4.53;;;8.20;99.90;;;;;;5024588;28;20241;-82
2022/10/01 06:52:47;;;;;;;5.03;4.20;;;8.20;99.90;;;;;;5019480;28;20222;-82
2022/10/01 06:54:09;;;;;;;5.97;4.43;;;8.20;99.90;;;;;;5016826;28;20267;-83
2022/10/01 06:56:37;;;;;;;4.77;3.83;;;8.20;99.90;;;;;;5017441;28;20317;-82
2022/10/01 06:59:06;;;;;;;5.77;3.47;;;8.20;99.90;;;;;;5023659;28;20234;-81
2022/10/01 07:01:35;;;;;;;4.10;3.40;;;8.20;99.90;;;;;;5021901;28;20265;-81
2022/10/01 07:04:02;;;;;;;4.33;3.33;;;8.30;99.90;;;;;;5025165;28;20621;-80
2022/10/01 07:06:28;;;;;;;7.17;4.07;;;8.30;99.90;;;;;;5018094;28;20329;-80
2022/10/01 07:08:55;;;;;;;6.13;3.80;;;8.30;99.90;;;;;;5021926;28;20266;-80
2022/10/01 07:11:22;;;;;;;4.63;3.80;;;8.40;99.90;;;;;;5016109;28;20218;-80
2022/10/01 07:13:50;;;;;;;4.70;3.50;;;8.40;99.90;;;;;;5006486;28;20250;-81
2022/10/01 07:16:17;;;;;;;5.83;3.57;;;8.30;99.90;;;;;;5021690;28;20302;-80
2022/10/01 07:18:45;;;;;;;8.13;3.93;;;8.30;99.90;;;;;;5026408;28;20758;-81
2022/10/01 07:21:11;;;;;;;6.73;4.07;;;8.40;99.90;;;;;;5017307;28;20230;-79
2022/10/01 07:23:38;;;;;;;7.13;3.60;;;8.30;99.90;;;;;;5023060;28;20862;-78
2022/10/01 07:26:07;;;;;;;6.70;4.20;;;8.40;99.90;;;;;;5018134;28;20236;-78
2022/10/01 07:28:37;;;;;;;8.63;4.00;;;8.40;99.90;;;;;;5037148;28;20655;-80
2022/10/01 07:31:09;;;;;;;9.63;4.53;;;8.40;99.90;;;;;;5023533;28;20702;-78
2022/10/01 07:33:35;;;;;;;11.37;4.47;;;8.50;99.90;;;;;;5019143;28;20232;-80
2022/10/01 07:36:06;;;;;;;6.10;4.03;;;8.40;99.90;;;;;;5021082;28;20237;-79
2022/10/01 07:38:33;;;;;;;6.37;4.07;;;8.40;99.90;;;;;;5018835;28;20242;-81
2022/10/01 07:41:01;;;;;;;11.77;4.33;;;8.40;99.90;;;;;;5023174;28;20259;-81
2022/10/01 07:43:28;;;;;;;5.73;4.37;;;8.40;99.90;;;;;;5018988;28;20302;-82
2022/10/01 07:45:56;;;;;;;4.70;3.70;;;8.50;99.90;;;;;;5013718;28;20232;-85
2022/10/01 07:48:24;;;;;;;7.60;4.33;;;8.50;99.90;;;;;;5029724;28;20311;-82
2022/10/01 07:50:51;;;;;;;8.17;4.47;;;8.50;99.90;;;;;;5022799;28;20281;-83
2022/10/01 07:53:19;;;;;;;5.73;4.23;;;8.50;99.90;;;;;;5021421;28;20765;-79
2022/10/01 07:55:46;;;;;;;6.67;4.40;;;8.50;99.90;;;;;;5023239;28;20314;-80
2022/10/01 07:58:13;;;;;;;4.87;4.20;;;8.50;99.90;;;;;;5015146;28;20619;-80
2022/10/01 08:00:39;;;;;;;4.73;4.03;;;8.50;99.90;;;;;;5021774;28;20226;-80
2022/10/01 08:03:06;;;;;;;5.30;4.67;;;8.50;99.90;;;;;;5015623;28;20323;-80
2022/10/01 08:05:35;;;;;;;5.40;4.13;;;8.50;99.90;;;;;;5017803;28;20227;-81
2022/10/01 08:08:04;;;;;;;7.77;4.67;;;8.60;99.90;;;;;;5022506;28;20817;-79
2022/10/01 08:10:35;;;;;;;11.23;4.50;;;8.50;99.90;;;;;;5006138;28;20231;-79
2022/10/01 08:13:07;;;;;;;6.40;4.63;;;8.50;99.90;;;;;;5015760;28;20222;-80
2022/10/01 08:15:34;;;;;;;7.90;4.30;;;8.60;99.90;;;;;;5016652;28;20329;-78
2022/10/01 08:18:04;;;;;;;5.37;3.67;;;8.60;99.90;;;;;;5010186;28;20239;-80
2022/10/01 08:20:31;;;;;;;4.57;3.63;;;8.60;99.90;;;;;;5019917;28;20247;-80
2022/10/01 08:23:02;;;;;;;5.87;4.27;;;8.60;99.90;;;;;;5019911;28;20360;-80
2022/10/01 08:25:29;;;;;;;5.33;3.90;;;8.60;99.90;;;;;;5019026;28;20231;-80
2022/10/01 08:27:58;;;;;;;6.77;4.10;;;8.60;99.90;;;;;;5016206;28;20251;-81
2022/10/01 08:30:25;;;;;;;5.53;3.80;;;8.60;99.90;;;;;;5015413;28;20232;-80
2022/10/01 08:32:56;;;;;;;5.63;4.07;;;8.70;99.90;;;;;;5013354;28;20493;-79
2022/10/01 08:35:23;;;;;;;5.77;3.53;;;8.70;99.90;;;;;;5017849;28;20314;-81
2022/10/01 08:37:50;;;;;;;5.57;3.60;;;8.70;99.90;;;;;;5013107;28;20217;-81
2022/10/01 08:40:20;;;;;;;4.50;3.10;;;8.70;99.90;;;;;;4997164;28;20229;-80
2022/10/01 08:42:53;;;;;;;4.50;3.30;;;8.70;99.90;;;;;;5001691;28;20326;-80
2022/10/01 08:45:26;;;;;;;3.50;2.90;;;8.70;99.90;;;;;;5017567;28;20344;-78
2022/10/01 08:48:00;;;;;;;3.40;3.10;;;8.80;99.90;;;;;;5013991;28;20659;-78
2022/10/01 08:50:47;;;;;;;4.30;3.20;;;8.70;99.90;;;;;;5016285;28;21326;-79
2022/10/01 08:53:19;;;;;;;5.57;3.40;;;8.80;99.90;;;;;;5030737;28;20224;-80
2022/10/01 08:55:50;;;;;;;4.93;3.30;;;8.80;99.90;;;;;;5009232;28;20661;-77
2022/10/01 08:58:24;;;;;;;5.17;3.10;;;8.80;99.90;;;;;;5002982;28;20313;-78
2022/10/01 09:00:52;;;;;;;4.60;3.27;;;8.90;99.90;;;;;;5010834;28;20249;-78
2022/10/01 09:03:19;;;;;;;3.57;2.73;;;8.90;99.90;;;;;;5011804;28;20224;-79
2022/10/01 09:06:07;;;;;;;4.80;2.90;;;8.90;99.90;;;;;;5013046;28;20884;-79
2022/10/01 09:08:46;;;;;;;3.67;2.60;;;8.90;99.90;;;;;;5015438;28;20646;-78
2022/10/01 09:11:23;;;;;;;2.90;2.60;;;9.00;99.90;;;;;;5015277;28;20876;-79
2022/10/01 09:14:20;;;;;;;2.87;2.57;;;9.00;99.90;;;;;;5013750;28;20490;-80
2022/10/01 09:16:56;;;;;;;3.23;2.80;;;9.00;99.90;;;;;;4988187;28;20250;-79
2022/10/01 09:19:37;;;;;;;3.00;2.37;;;9.00;99.90;;;;;;5015079;28;20334;-79
2022/10/01 09:22:12;;;;;;;5.03;2.33;;;9.00;99.90;;;;;;5012069;28;20241;-79
2022/10/01 09:24:44;;;;;;;4.83;2.53;;;9.10;99.90;;;;;;5019096;28;20226;-79
2022/10/01 09:27:14;;;;;;;3.57;2.90;;;9.10;99.90;;;;;;5019090;28;20227;-80
2022/10/01 09:29:47;;;;;;;2.60;2.40;;;9.10;99.90;;;;;;5010478;28;20267;-79
2022/10/01 09:32:20;;;;;;;2.97;2.67;;;9.20;99.90;;;;;;5008713;28;20229;-80
2022/10/01 09:34:47;;;;;;;4.57;3.70;;;9.20;99.90;;;;;;5015233;28;20314;-78
2022/10/01 09:37:25;;;;;;;3.90;3.60;;;9.30;99.90;;;;;;5012566;28;20778;-79
2022/10/01 09:40:03;;;;;;;3.57;3.20;;;9.30;99.90;;;;;;5011242;28;20873;-80
2022/10/01 09:42:32;;;;;;;4.93;3.10;;;9.30;99.90;;;;;;5025448;28;20226;-78
2022/10/01 09:44:59;;;;;;;3.10;2.63;;;9.30;99.90;;;;;;5009698;28;20233;-80
2022/10/01 09:47:28;;;;;;;3.03;2.73;;;9.30;99.90;;;;;;5018977;28;20230;-80
2022/10/01 09:49:55;;;;;;;4.00;3.00;;;9.40;99.90;;;;;;5016367;28;20242;-80
2022/10/01 09:52:27;;;;;;;4.10;3.20;;;9.40;99.90;;;;;;5011618;28;20301;-81
2022/10/01 09:55:00;;;;;;;3.87;2.83;;;9.40;99.90;;;;;;5020591;28;20313;-80
2022/10/01 09:57:32;;;;;;;3.63;2.97;;;9.50;99.90;;;;;;5023535;28;20227;-80
2022/10/01 10:00:06;;;;;;;5.37;3.50;;;9.50;99.90;;;;;;5017505;28;20228;-78
2022/10/01 10:02:39;;;;;;;4.37;3.53;;;9.60;99.90;;;;;;5017229;28;20236;-80
2022/10/01 10:05:08;;;;;;;4.20;3.80;;;9.60;99.90;;;;;;5018336;28;20319;-80
2022/10/01 10:07:41;;;;;;;5.43;3.97;;;9.70;99.90;;;;;;5024154;28;20231;-80
2022/10/01 10:10:10;;;;;;;4.53;3.80;;;9.70;99.90;;;;;;5019315;28;20259;-79
2022/10/01 10:12:37;;;;;;;4.50;4.10;;;9.80;99.90;;;;;;5026450;28;20228;-80
2022/10/01 10:15:10;;;;;;;5.67;5.10;;;9.80;99.90;;;;;;5024227;28;20327;-78
2022/10/01 10:17:43;;;;;;;7.13;5.40;;;9.80;99.90;;;;;;5022721;28;20706;-78
2022/10/01 10:20:16;;;;;;;5.97;5.37;;;9.90;99.90;;;;;;5022039;28;20669;-80
2022/10/01 10:22:42;;;;;;;6.93;5.60;;;10.00;99.90;;;;;;5016659;28;20250;-79
2022/10/01 10:25:20;;;;;;;7.03;5.37;;;10.10;99.90;;;;;;5013490;28;20221;-80
2022/10/01 10:27:54;;;;;;;5.93;5.27;;;10.20;99.90;;;;;;5023538;28;20229;-79
2022/10/01 10:30:23;;;;;;;7.27;6.00;;;10.30;99.90;;;;;;5023594;28;20247;-79
2022/10/01 10:32:52;;;;;;;7.13;6.43;;;10.40;99.90;;;;;;5017741;28;20622;-78
2022/10/01 10:35:22;;;;;;;9.10;5.73;;;10.50;99.90;;;;;;5019709;28;20246;-80
2022/10/01 10:37:52;;;;;;;6.20;5.60;;;10.50;99.90;;;;;;5023543;28;20256;-80
2022/10/01 10:40:22;;;;;;;6.53;5.93;;;10.60;99.90;;;;;;5021303;28;20221;-80
2022/10/01 10:42:49;;;;;;;6.33;5.73;;;10.70;99.90;;;;;;5018769;28;20237;-79
2022/10/01 10:45:20;;;;;;;8.17;6.23;;;10.90;99.90;;;;;;5020448;28;20238;-78
2022/10/01 10:47:49;;;;;;;9.73;6.63;;;11.00;99.90;;;;;;5013021;28;20228;-78
2022/10/01 10:50:30;;;;;;;9.27;6.00;;;11.10;99.90;;;;;;5019729;28;20260;-79
2022/10/01 10:52:57;;;;;;;7.73;5.80;;;11.20;99.90;;;;;;5021758;28;20227;-79
2022/10/01 10:55:26;;;;;;;7.40;5.80;;;11.30;99.90;;;;;;5014195;28;20234;-80
2022/10/01 10:57:53;;;;;;;8.20;5.47;;;11.40;99.90;;;;;;5018156;28;20236;-78
2022/10/01 11:00:22;;;;;;;6.70;5.97;;;11.60;99.90;;;;;;5013278;28;20236;-79
2022/10/01 11:02:53;;;;;;;9.63;5.70;;;11.60;99.90;;;;;;5018818;28;20321;-78
2022/10/01 11:05:24;;;;;;;8.70;5.67;;;11.80;99.90;;;;;;5017700;28;20721;-80
2022/10/01 11:07:54;;;;;;;6.13;5.17;;;11.90;99.90;;;;;;5022745;28;20242;-78
2022/10/01 11:10:32;;;;;;;7.33;5.43;;;12.00;99.90;;;;;;5024427;28;20259;-79
2022/10/01 11:13:21;;;;;;;6.17;4.73;;;12.20;99.90;;;;;;5020409;28;20234;-79
2022/10/01 11:16:12;;;;;;;7.17;4.83;;;12.50;99.90;;;;;;5026413;28;20235;-77
2022/10/01 11:19:04;;;;;;;6.57;4.77;;;12.70;99.90;;;;;;5026453;28;20314;-78
2022/10/01 11:21:51;;;;;;;9.93;5.00;;;12.90;99.90;;;;;;5020856;28;20220;-79
2022/10/01 11:24:34;;;;;;;7.83;4.67;;;13.20;99.90;;;;;;5013814;28;20216;-81
2022/10/01 11:27:06;;;;;;;5.13;4.53;;;13.50;99.90;;;;;;5015995;28;20280;-81
2022/10/01 11:29:41;;;;;;;7.67;4.70;;;13.70;99.90;;;;;;5006738;28;20229;-80
2022/10/01 11:32:18;;;;;;;5.67;3.80;;;14.00;99.90;;;;;;5020067;28;20697;-79
2022/10/01 11:34:59;;;;;;;5.37;3.47;;;14.30;99.90;;;;;;5032692;28;20705;-80
2022/10/01 11:37:47;;;;;;;5.17;3.17;;;14.60;99.90;;;;;;5013817;28;20225;-80
2022/10/01 11:40:19;;;;;;;5.87;2.90;;;14.80;99.90;;;;;;5020345;28;21442;-79
2022/10/01 11:42:48;;;;;;;5.37;3.37;;;15.00;99.90;;;;;;5017783;28;20743;-79
2022/10/01 11:45:20;;;;;;;4.57;3.00;;;15.10;99.90;;;;;;5020674;28;20221;-79
2022/10/01 11:47:50;;;;;;;7.67;3.00;;;15.20;99.90;;;;;;5023590;28;20620;-80
2022/10/01 11:50:20;;;;;;;6.13;3.17;;;15.30;99.90;;;;;;5020542;28;20621;-80
2022/10/01 11:52:53;;;;;;;6.60;3.17;;;15.30;99.90;;;;;;5015998;28;20226;-80
2022/10/01 12:01:10;;;;;;;3.80;2.53;;;15.40;99.90;;;;;;5015405;28;20221;-80
2022/10/01 12:03:49;;;;;;;6.57;2.53;;;15.60;99.90;;;;;;5013309;28;20228;-80
2022/10/01 12:06:18;;;;;;;7.07;2.40;;;15.70;99.90;;;;;;5019156;28;20229;-81
2022/10/01 12:08:53;;;;;;;8.63;2.50;;;15.80;99.90;;;;;;5015310;28;20536;-82
2022/10/01 12:11:28;;;;;;;9.33;2.73;;;15.90;99.90;;;;;;5013282;28;20320;-80
2022/10/01 12:14:00;;;;;;;7.90;2.53;;;15.90;99.90;;;;;;5005458;28;20594;-82
2022/10/01 12:16:38;;;;;;;5.50;2.60;;;15.80;99.90;;;;;;5014142;28;20235;-81
2022/10/01 12:19:12;;;;;;;7.73;2.93;;;15.70;99.90;;;;;;5014081;28;20232;-81
2022/10/01 12:21:43;;;;;;;5.60;2.37;;;15.70;99.90;;;;;;5020016;28;20248;-81
2022/10/01 12:24:15;;;;;;;6.13;2.50;;;15.60;99.90;;;;;;5015594;28;20286;-81
2022/10/01 12:26:52;;;;;;;4.50;1.90;;;15.60;99.90;;;;;;5015262;28;20292;-82
2022/10/01 12:29:27;;;;;;;9.67;2.70;;;15.60;99.90;;;;;;5007984;28;20250;-81
2022/10/01 12:32:01;;;;;;;7.70;2.40;;;15.70;99.90;;;;;;5008726;28;20999;-81
2022/10/01 12:34:38;;;;;;;10.07;2.30;;;15.90;99.90;;;;;;5014180;28;20762;-82
2022/10/01 12:37:17;;;;;;;8.20;2.00;;;16.00;99.90;;;;;;5007505;28;21546;-82
2022/10/01 12:40:02;;;;;;;5.27;1.80;;;16.30;99.90;;;;;;5006902;28;20293;-81
2022/10/01 12:42:49;;;;;;;3.73;1.60;;;16.50;99.90;;;;;;4999764;28;20235;-82
2022/10/01 12:45:28;;;;;;;6.17;1.80;;;16.80;99.90;;;;;;5004500;28;20303;-82
2022/10/01 12:48:04;;;;;;;4.23;1.43;;;17.00;99.90;;;;;;4992977;28;20879;-82
2022/10/01 12:50:43;;;;;;;5.03;1.70;;;17.30;99.90;;;;;;5009362;28;20262;-82
2022/10/01 12:53:23;;;;;;;5.17;1.60;;;17.40;99.90;;;;;;5015365;28;20257;-82
2022/10/01 12:55:59;;;;;;;4.90;1.80;;;17.60;99.90;;;;;;5006611;28;20232;-81
2022/10/01 12:59:02;;;;;;;9.97;2.03;;;17.60;99.90;;;;;;5009756;28;20235;-81
2022/10/01 13:01:43;;;;;;;4.13;1.40;;;17.50;99.90;;;;;;4996802;28;20230;-81
2022/10/01 13:04:20;;;;;;;6.00;1.37;;;17.30;99.90;;;;;;5028750;28;20233;-81
2022/10/01 13:06:59;;;;;;;5.77;1.40;;;17.20;99.90;;;;;;5017028;28;20550;-81
2022/10/01 13:09:37;;;;;;;3.17;1.20;;;17.00;99.90;;;;;;5016168;28;20231;-81
2022/10/01 13:12:20;;;;;;;5.57;1.90;;;16.80;99.90;;;;;;5031922;28;20290;-81
2022/10/01 13:14:48;;;;;;;4.27;1.70;;;16.60;99.90;;;;;;5013595;28;20239;-81
2022/10/01 13:17:22;;;;;;;7.33;1.50;;;16.50;99.90;;;;;;5011704;28;20314;-81
2022/10/01 13:19:54;;;;;;;4.07;1.30;;;16.40;99.90;;;;;;5017721;28;20707;-81